Latest Weather Observations for Fitzroy Crossing

IDW60801

Issued at 9:33 pm WST Wednesday 28 September 2016 (issued every 30 minutes, with the page automatically refreshed every 10 minutes)

About weather observations | Map of weather stations | Latest weather observations for WA | Other Formats
Station Details ID: 003093 Name: FITZROY CROSSING AERO Lat: -18.18 Lon: 125.56 Height: 114.5 m
Data from the previous 72 hours. | See also: Recent months at Fitzroy Crossing
Date/Time
WST
Temp
°C
App
Temp
°C
Dew
Point
°C
Rel
Hum
%
Delta-T
°C
Wind Press
QNH
hPa
Press
MSL
hPa
Rain since
9am
mm
Dir  Spd
km/h
Gust
km/h
Spd
kts
Gust
kts
28/09:30pm 28.7 28.4 14.5 42 8.6 SSE 9 13 5 7 1011.6 1010.9 0.0
28/09:00pm 29.0 27.9 14.4 41 8.9 SSE 13 17 7 9 1011.6 1010.9 0.0
28/08:30pm 29.1 27.3 14.5 41 8.9 S 17 26 9 14 1011.4 1010.7 0.0
28/08:00pm 29.5 27.9 14.9 41 8.9 S 17 24 9 13 1011.3 1010.6 0.0
28/07:30pm 29.4 28.4 15.5 43 8.6 S 15 20 8 11 1011.0 1010.3 0.0
28/07:00pm 29.6 28.3 15.7 43 8.6 SSW 17 22 9 12 1010.8 1010.1 0.0
28/06:30pm 30.2 27.6 15.9 42 8.9 S 24 33 13 18 1010.3 1009.6 0.0
28/06:00pm 30.9 28.5 14.5 37 10.0 S 20 35 11 19 1009.8 1009.1 0.0
28/05:30pm 31.7 28.7 14.8 36 10.4 SSW 24 32 13 17 1009.3 1008.6 0.0
28/05:00pm 32.8 29.7 14.4 33 11.3 S 24 37 13 20 1008.9 1008.2 0.0
28/04:30pm 34.7 30.7 13.0 27 13.2 SSW 26 35 14 19 1008.4 1007.7 0.0
28/04:00pm 36.1 32.8 14.1 26 13.7 SSW 24 35 13 19 1008.2 1007.5 0.0
28/03:30pm 36.7 33.6 13.5 25 14.3 SSW 22 33 12 18 1007.9 1007.2 0.0
28/03:00pm 37.6 35.3 14.2 25 14.6 WSW 19 30 10 16 1007.9 1007.2 0.0
28/02:30pm 37.1 33.9 13.2 24 14.7 WSW 22 35 12 19 1008.3 1007.6 0.0
28/02:00pm 38.2 36.0 13.4 23 15.4 SW 17 35 9 19 1008.6 1007.9 0.0
28/01:30pm 36.9 34.0 13.0 24 14.6 WSW 20 33 11 18 1009.0 1008.3 0.0
28/01:00pm 36.1 34.0 12.3 24 14.4 S 15 33 8 18 1009.4 1008.7 0.0
28/12:30pm 35.5 32.3 11.2 23 14.4 S 19 32 10 17 1010.0 1009.3 0.0
28/12:00pm 35.5 34.0 11.8 24 14.2 S 11 22 6 12 1010.6 1009.9 0.0
28/11:30am 35.5 34.0 11.8 24 14.2 SSE 11 24 6 13 1011.2 1010.5 0.0
28/11:00am 34.3 32.5 10.8 24 13.8 SE 11 19 6 10 1011.7 1011.0 0.0
28/10:30am 33.5 30.0 10.2 24 13.5 S 19 28 10 15 1012.3 1011.6 0.0
28/10:00am 33.6 29.9 10.2 24 13.6 S 20 32 11 17 1012.7 1012.0 0.0
28/09:30am 34.0 30.8 9.9 23 13.9 SSE 17 28 9 15 1013.0 1012.4 0.0
28/09:00am 32.8 29.1 9.6 24 13.3 S 19 28 10 15 1013.2 1012.6 0.0
28/08:30am 31.4 28.6 11.2 29 11.8 S 17 24 9 13 1013.4 1012.8 0.0
28/08:00am 30.7 28.1 12.1 32 11.0 SSW 17 26 9 14 1013.2 1012.6 0.0
28/07:30am 29.8 28.7 14.4 39 9.4 SSW 13 20 7 11 1012.9 1012.3 0.0
28/07:00am 28.5 27.4 15.4 45 8.1 WSW 15 17 8 9 1012.5 1011.8 0.0
28/06:30am 26.6 26.9 15.9 51 6.6 W 9 15 5 8 1012.0 1011.3 0.0
28/06:00am 24.4 25.0 15.9 59 5.2 W 7 9 4 5 1011.5 1010.8 0.0
28/05:30am 23.4 24.1 15.5 61 4.8 W 6 7 3 4 1011.1 1010.4 0.0
28/05:00am 23.7 23.8 15.5 60 5.0 WNW 9 11 5 6 1010.7 1010.0 0.0
28/04:30am 24.3 24.0 15.5 58 5.3 WNW 11 13 6 7 1010.2 1009.5 0.0
28/04:00am 25.0 24.3 15.3 55 5.9 WNW 13 15 7 8 1009.8 1009.1 0.0
28/03:30am 25.9 24.8 15.3 52 6.4 W 15 20 8 11 1009.5 1008.8 0.0
28/03:00am 26.7 25.2 15.4 50 6.9 W 17 20 9 11 1009.4 1008.7 0.0
28/02:30am 27.2 25.7 15.2 47 7.3 W 17 22 9 12 1009.4 1008.7 0.0
28/02:00am 27.6 26.0 14.9 45 7.7 WNW 17 26 9 14 1009.1 1008.4 0.0
28/01:30am 28.0 26.3 14.6 44 8.1 WNW 17 24 9 13 1009.1 1008.4 0.0
28/01:00am 28.1 26.5 14.0 42 8.5 WNW 15 20 8 11 1009.1 1008.4 0.0
28/12:30am 28.1 26.3 13.2 39 8.8 WNW 15 20 8 11 1009.0 1008.3 0.0
28/12:00am 28.9 26.8 12.3 36 9.7 WNW 15 20 8 11 1009.2 1008.5 0.0
 
Date/Time
WST
Temp
°C
App
Temp
°C
Dew
Point
°C
Rel
Hum
%
Delta-T
°C
Wind Press
QNH
hPa
Press
MSL
hPa
Rain since
9am
mm
Dir  Spd
km/h
Gust
km/h
Spd
kts
Gust
kts
27/11:30pm 29.3 27.0 11.8 34 10.2 WNW 15 19 8 10 1009.2 1008.5 0.0
27/11:00pm 30.2 27.4 11.2 31 11.0 W 17 20 9 11 1009.2 1008.5 0.0
27/10:30pm 31.1 27.3 11.0 29 11.7 W 22 30 12 16 1009.5 1008.8 0.0
27/10:00pm 28.2 25.6 9.5 31 10.5 NW 13 19 7 10 1009.6 1008.9 0.0
27/09:30pm 31.1 28.1 9.3 26 12.3 WNW 15 17 8 9 1009.6 1008.9 0.0
27/09:00pm 31.9 28.6 9.4 25 12.8 WNW 17 22 9 12 1009.6 1008.9 0.0
27/08:30pm 32.1 28.8 9.6 25 12.8 WNW 17 20 9 11 1009.5 1008.8 0.0
27/08:00pm 31.2 29.0 9.4 26 12.4 WNW 11 15 6 8 1009.2 1008.5 0.0
27/07:30pm 31.0 28.4 9.3 26 12.2 W 13 15 7 8 1008.9 1008.2 0.0
27/07:00pm 32.0 29.3 8.9 24 13.0 W 13 13 7 7 1008.7 1008.0 0.0
27/06:30pm 32.7 30.4 8.9 23 13.5 WSW 11 15 6 8 1008.2 1007.5 0.0
27/06:00pm 33.9 31.1 8.5 21 14.4 WSW 13 15 7 8 1007.8 1007.1 0.0
27/05:30pm 36.0 33.1 8.0 18 15.8 W 13 17 7 9 1007.3 1006.6 0.0
27/05:00pm 37.7 34.5 8.5 17 16.8 WNW 15 19 8 10 1006.9 1006.2 0.0
27/04:30pm 38.6 35.7 8.3 16 17.4 NW 13 22 7 12 1006.5 1005.8 0.0
27/04:00pm 38.5 36.7 7.3 15 17.7 N 6 11 3 6 1006.3 1005.6 0.0
27/03:30pm 38.9 35.9 7.6 15 17.8 WSW 13 19 7 10 1006.3 1005.6 0.0
27/03:00pm 39.2 35.8 7.8 15 18.0 W 15 24 8 13 1006.6 1005.9 0.0
27/02:30pm 39.6 36.3 8.1 15 18.1 SW 15 24 8 13 1006.6 1005.9 0.0
27/02:00pm 39.6 37.1 8.1 15 18.2 NW 11 20 6 11 1006.9 1006.2 0.0
27/01:30pm 38.5 35.0 7.3 15 17.7 NW 15 24 8 13 1007.5 1006.8 0.0
27/01:00pm 38.7 37.0 8.4 16 17.5 NNW 7 22 4 12 1007.9 1007.2 0.0
27/12:30pm 38.9 36.9 8.5 16 17.6 NW 9 17 5 9 1008.3 1007.6 0.0
27/12:00pm 37.9 36.0 7.7 16 17.2 NNW 7 13 4 7 1008.8 1008.1 0.0
27/11:30am 36.9 34.1 7.0 16 16.7 SSE 11 17 6 9 1009.5 1008.8 0.0
27/11:00am 37.1 34.9 8.0 17 16.6 SE 9 17 5 9 1010.1 1009.4 0.0
27/10:30am 36.5 34.0 8.4 18 16.0 ESE 11 22 6 12 1010.9 1010.2 0.0
27/10:00am 35.5 32.9 7.6 18 15.7 ENE 11 19 6 10 1011.5 1010.8 0.0
27/09:30am 34.9 33.1 7.9 19 15.2 ESE 7 15 4 8 1011.9 1011.2 0.0
27/09:00am 34.3 31.9 8.8 21 14.5 ESE 11 17 6 9 1012.3 1011.6 0.0
27/08:30am 32.8 29.2 8.3 22 13.7 NE 17 22 9 12 1012.5 1011.8 0.0
27/08:00am 31.5 27.4 8.5 24 12.8 E 20 28 11 15 1012.5 1011.8 0.0
27/07:30am 30.5 28.4 9.9 28 11.7 E 11 17 6 9 1012.3 1011.6 0.0
27/07:00am 28.7 27.2 10.4 32 10.4 ESE 9 13 5 7 1012.1 1011.4 0.0
27/06:30am 25.8 26.6 12.6 44 7.7 CALM 0 0 0 0 1011.9 1011.2 0.0
27/06:00am 22.4 23.2 12.6 54 5.6 CALM 0 0 0 0 1011.5 1010.8 0.0
27/05:30am 22.0 22.9 12.8 56 5.3 CALM 0 0 0 0 1011.3 1010.6 0.0
27/05:00am 22.3 23.2 12.8 55 5.5 CALM 0 4 0 2 1011.2 1010.5 0.0
27/04:30am 24.0 24.9 12.9 50 6.4 CALM 0 0 0 0 1010.9 1010.2 0.0
27/04:00am 24.3 24.8 12.9 49 6.6 SW 2 7 1 4 1010.5 1009.8 0.0
27/03:30am 24.4 24.2 13.0 49 6.6 WSW 6 7 3 4 1010.2 1009.5 0.0
27/03:00am 25.1 24.8 12.7 46 7.2 SW 6 7 3 4 1009.9 1009.2 0.0
27/02:30am 26.2 25.4 13.0 44 7.7 SW 9 11 5 6 1009.6 1008.9 0.0
27/02:00am 26.8 26.0 12.8 42 8.2 SSW 9 11 5 6 1009.6 1008.9 0.0
27/01:30am 28.0 26.4 12.8 39 9.0 SSW 13 17 7 9 1009.7 1009.0 0.0
27/01:00am 29.1 25.8 12.9 37 9.6 W 22 30 12 16 1009.3 1008.6 0.0
27/12:30am 29.5 26.2 12.9 36 9.9 W 22 30 12 16 1009.5 1008.8 0.0
27/12:00am 29.8 26.5 12.7 35 10.1 W 22 28 12 15 1009.7 1009.0 0.0
 
Date/Time
WST
Temp
°C
App
Temp
°C
Dew
Point
°C
Rel
Hum
%
Delta-T
°C
Wind Press
QNH
hPa
Press
MSL
hPa
Rain since
9am
mm
Dir  Spd
km/h
Gust
km/h
Spd
kts
Gust
kts
26/11:30pm 27.9 26.1 11.0 35 9.7 W 11 15 6 8 1010.0 1009.3 0.0
26/11:00pm 26.3 26.4 10.0 36 9.1 CALM 0 0 0 0 1010.1 1009.4 0.0
26/10:30pm 28.6 27.0 10.3 32 10.4 SW 9 9 5 5 1010.2 1009.5 0.0
26/10:00pm 29.5 27.5 10.1 30 11.0 SSW 11 13 6 7 1010.3 1009.6 0.0
26/09:30pm 30.1 28.1 10.1 29 11.4 SSW 11 13 6 7 1010.4 1009.7 0.0
26/09:00pm 30.7 28.3 10.1 28 11.8 SSW 13 15 7 8 1010.6 1009.9 0.0
26/08:30pm 31.1 29.0 9.9 27 12.1 SSW 11 13 6 7 1010.4 1009.7 0.0
26/08:00pm 31.2 29.5 10.0 27 12.1 SSW 9 11 5 6 1010.2 1009.5 0.0
26/07:30pm 31.6 29.5 9.8 26 12.4 SSW 11 13 6 7 1010.1 1009.4 0.0
26/07:00pm 32.2 30.1 9.7 25 12.9 SSW 11 13 6 7 1009.8 1009.1 0.0
26/06:30pm 32.3 30.4 9.2 24 13.1 SSW 9 11 5 6 1009.3 1008.6 0.0
26/06:00pm 32.8 30.9 8.9 23 13.5 SW 9 11 5 6 1008.9 1008.2 0.0
26/05:30pm 35.1 33.5 8.8 20 15.0 W 7 11 4 6 1008.5 1007.8 0.0
26/05:00pm 36.7 34.7 8.5 18 16.2 WSW 9 17 5 9 1008.0 1007.3 0.0
26/04:30pm 37.3 35.2 8.2 17 16.6 W 9 17 5 9 1007.8 1007.1 0.0
26/04:00pm 37.9 36.2 7.7 16 17.2 NW 6 13 3 7 1007.4 1006.7 0.0
26/03:30pm 38.0 35.0 7.8 16 17.2 WNW 13 20 7 11 1007.3 1006.6 0.0
26/03:00pm 37.8 35.9 7.7 16 17.1 SW 7 19 4 10 1007.2 1006.5 0.0
26/02:30pm 38.4 34.5 7.2 15 17.6 WSW 17 22 9 12 1007.4 1006.7 0.0
26/02:00pm 37.8 34.4 7.7 16 17.1 WNW 15 22 8 12 1007.7 1007.0 0.0
26/01:30pm 37.9 35.7 7.7 16 17.2 SW 9 20 5 11 1007.9 1007.2 0.0
26/01:00pm 37.1 33.6 7.1 16 16.9 W 15 28 8 15 1008.4 1007.7 0.0
26/12:30pm 37.4 35.1 7.3 16 17.0 WSW 9 24 5 13 1008.7 1008.0 0.0
26/12:00pm 36.5 34.0 8.4 18 16.1 SSW 11 22 6 12 1009.3 1008.6 0.0
26/11:30am 36.2 33.9 8.9 19 15.7 SW 11 24 6 13 1009.9 1009.2 0.0
26/11:00am 35.3 32.8 9.7 21 14.8 WSW 13 20 7 11 1010.4 1009.7 0.0
26/10:30am 34.3 32.1 9.5 22 14.3 SSW 11 19 6 10 1010.7 1010.0 0.0
26/10:00am 33.5 32.5 10.2 24 13.5 SW 6 15 3 8 1011.1 1010.4 0.0
26/09:30am 32.2 30.6 10.3 26 12.6 SSW 9 17 5 9 1011.4 1010.7 0.0
26/09:00am 31.8 30.5 9.3 25 12.8 WSW 6 13 3 7 1011.6 1010.9 0.0
26/08:30am 31.0 29.5 9.3 26 12.2 WSW 7 11 4 6 1011.7 1011.0 0.0
26/08:00am 29.9 28.2 8.3 26 11.9 WSW 7 13 4 7 1011.7 1011.0 0.0
26/07:30am 28.9 26.2 7.5 26 11.6 W 11 15 6 8 1011.4 1010.7 0.0
26/07:00am 27.4 24.3 7.3 28 10.8 WNW 13 17 7 9 1011.3 1010.6 0.0
26/06:30am 24.5 22.7 9.3 38 8.3 NW 9 13 5 7 1010.9 1010.2 0.0
26/06:00am 20.9 18.6 8.9 46 6.4 NNW 11 13 6 7 1010.7 1010.0 0.0
26/05:30am 19.7 17.6 8.4 48 5.9 NNW 9 11 5 6 1010.2 1009.5 0.0
26/05:00am 20.5 18.5 8.8 47 6.2 N 9 13 5 7 1009.7 1009.0 0.0
26/04:30am 20.2 18.2 8.5 47 6.1 NNW 9 9 5 5 1009.2 1008.5 0.0
26/04:00am 20.8 19.1 8.4 45 6.5 NW 7 11 4 6 1008.9 1008.2 0.0
26/03:30am 22.0 20.3 8.5 42 7.2 NW 7 9 4 5 1008.6 1007.9 0.0
26/03:00am 22.9 20.9 8.6 40 7.7 W 9 11 5 6 1008.5 1007.8 0.0
26/02:30am 22.8 20.4 8.5 40 7.6 WNW 11 13 6 7 1008.5 1007.8 0.0
26/02:00am 24.0 21.6 8.8 38 8.2 W 11 13 6 7 1008.5 1007.8 0.0
26/01:30am 23.9 21.1 8.7 38 8.2 W 13 13 7 7 1008.6 1007.9 0.0
26/01:00am 24.2 22.6 8.6 37 8.4 WNW 7 9 4 5 1009.0 1008.3 0.0
26/12:30am 24.2 22.5 8.2 36 8.6 NW 7 9 4 5 1009.2 1008.5 0.0
26/12:00am 24.4 22.1 7.5 34 8.9 WNW 9 11 5 6 1009.4 1008.7 0.0
 
Date/Time
WST
Temp
°C
App
Temp
°C
Dew
Point
°C
Rel
Hum
%
Delta-T
°C
Wind Press
QNH
hPa
Press
MSL
hPa
Rain since
9am
mm
Dir  Spd
km/h
Gust
km/h
Spd
kts
Gust
kts
25/11:30pm 24.5 21.8 7.2 33 9.1 NW 11 11 6 6 1009.6 1008.9 0.0
25/11:00pm 25.6 23.2 7.2 31 9.8 NW 9 11 5 6 1009.7 1009.0 0.0
25/10:30pm 25.1 21.9 6.8 31 9.6 NW 13 15 7 8 1009.6 1008.9 0.0
25/10:00pm 25.4 22.0 6.1 29 10.0 NNW 13 20 7 11 1009.6 1008.9 0.0

Other Formats:

Comma delimited format used in spreadsheet applications
http://www.bom.gov.au/fwo/IDW60801/IDW60801.94206.axf

JavaScript Object Notation format (JSON) in row-major order
http://www.bom.gov.au/fwo/IDW60801/IDW60801.94206.json